sensor_id;sensor_type;location;lat;lon;timestamp;P1;durP1;ratioP1;P2;durP2;ratioP2
75446;SDS011;64024;55.820;37.574;2023-07-02T00:04:09;5.28;;;4.32;;
75446;SDS011;64024;55.820;37.574;2023-07-02T00:06:38;5.30;;;4.20;;
75446;SDS011;64024;55.820;37.574;2023-07-02T00:09:06;5.53;;;4.38;;
75446;SDS011;64024;55.820;37.574;2023-07-02T00:11:33;6.20;;;4.88;;
75446;SDS011;64024;55.820;37.574;2023-07-02T00:13:58;5.95;;;4.72;;
75446;SDS011;64024;55.820;37.574;2023-07-02T00:16:24;5.95;;;4.90;;
75446;SDS011;64024;55.820;37.574;2023-07-02T00:18:49;6.93;;;5.60;;
75446;SDS011;64024;55.820;37.574;2023-07-02T00:21:20;5.75;;;4.72;;
75446;SDS011;64024;55.820;37.574;2023-07-02T00:23:47;5.70;;;4.72;;
75446;SDS011;64024;55.820;37.574;2023-07-02T00:26:13;6.43;;;4.90;;
75446;SDS011;64024;55.820;37.574;2023-07-02T00:28:38;5.65;;;4.35;;
75446;SDS011;64024;55.820;37.574;2023-07-02T00:31:07;5.25;;;4.30;;
75446;SDS011;64024;55.820;37.574;2023-07-02T00:33:33;5.47;;;4.30;;
75446;SDS011;64024;55.820;37.574;2023-07-02T00:35:59;4.63;;;4.13;;
75446;SDS011;64024;55.820;37.574;2023-07-02T00:38:25;5.43;;;4.53;;
75446;SDS011;64024;55.820;37.574;2023-07-02T00:40:51;7.32;;;4.57;;
75446;SDS011;64024;55.820;37.574;2023-07-02T00:43:17;5.78;;;4.20;;
75446;SDS011;64024;55.820;37.574;2023-07-02T00:45:44;5.70;;;4.45;;
75446;SDS011;64024;55.820;37.574;2023-07-02T00:48:10;5.85;;;5.00;;
75446;SDS011;64024;55.820;37.574;2023-07-02T00:50:36;5.75;;;5.15;;
75446;SDS011;64024;55.820;37.574;2023-07-02T00:53:02;6.28;;;4.75;;
75446;SDS011;64024;55.820;37.574;2023-07-02T00:55:28;5.82;;;4.97;;
75446;SDS011;64024;55.820;37.574;2023-07-02T00:57:54;8.00;;;5.18;;
75446;SDS011;64024;55.820;37.574;2023-07-02T01:00:22;5.07;;;4.18;;
75446;SDS011;64024;55.820;37.574;2023-07-02T01:02:54;6.18;;;4.50;;
75446;SDS011;64024;55.820;37.574;2023-07-02T01:05:26;5.22;;;4.35;;
75446;SDS011;64024;55.820;37.574;2023-07-02T01:08:03;5.93;;;4.55;;
75446;SDS011;64024;55.820;37.574;2023-07-02T01:10:31;6.43;;;4.50;;
75446;SDS011;64024;55.820;37.574;2023-07-02T01:15:30;5.05;;;4.22;;
75446;SDS011;64024;55.820;37.574;2023-07-02T01:17:57;7.03;;;4.47;;
75446;SDS011;64024;55.820;37.574;2023-07-02T01:20:23;6.13;;;4.00;;
75446;SDS011;64024;55.820;37.574;2023-07-02T01:22:50;10.13;;;5.38;;
75446;SDS011;64024;55.820;37.574;2023-07-02T01:25:19;5.70;;;4.35;;
75446;SDS011;64024;55.820;37.574;2023-07-02T01:27:50;5.72;;;4.68;;
75446;SDS011;64024;55.820;37.574;2023-07-02T01:30:16;5.25;;;3.95;;
75446;SDS011;64024;55.820;37.574;2023-07-02T01:32:43;8.30;;;4.70;;
75446;SDS011;64024;55.820;37.574;2023-07-02T01:35:08;5.80;;;4.32;;
75446;SDS011;64024;55.820;37.574;2023-07-02T01:37:34;5.25;;;4.22;;
75446;SDS011;64024;55.820;37.574;2023-07-02T01:40:05;5.18;;;4.53;;
75446;SDS011;64024;55.820;37.574;2023-07-02T01:42:32;6.20;;;5.00;;
75446;SDS011;64024;55.820;37.574;2023-07-02T01:44:58;7.07;;;5.15;;
75446;SDS011;64024;55.820;37.574;2023-07-02T01:47:24;5.05;;;4.30;;
75446;SDS011;64024;55.820;37.574;2023-07-02T01:49:50;5.30;;;4.80;;
75446;SDS011;64024;55.820;37.574;2023-07-02T01:52:16;7.10;;;5.00;;
75446;SDS011;64024;55.820;37.574;2023-07-02T01:54:42;6.30;;;5.05;;
75446;SDS011;64024;55.820;37.574;2023-07-02T01:57:09;5.20;;;4.38;;
75446;SDS011;64024;55.820;37.574;2023-07-02T01:59:35;6.30;;;4.95;;
75446;SDS011;64024;55.820;37.574;2023-07-02T02:02:01;6.32;;;5.00;;
75446;SDS011;64024;55.820;37.574;2023-07-02T02:04:27;5.57;;;4.57;;
75446;SDS011;64024;55.820;37.574;2023-07-02T02:06:53;6.20;;;4.20;;
75446;SDS011;64024;55.820;37.574;2023-07-02T02:09:19;4.60;;;3.88;;
75446;SDS011;64024;55.820;37.574;2023-07-02T02:11:47;6.18;;;4.40;;
75446;SDS011;64024;55.820;37.574;2023-07-02T02:14:15;4.70;;;4.20;;
75446;SDS011;64024;55.820;37.574;2023-07-02T02:16:42;5.47;;;4.20;;
75446;SDS011;64024;55.820;37.574;2023-07-02T02:19:10;4.95;;;4.45;;
75446;SDS011;64024;55.820;37.574;2023-07-02T02:21:37;4.70;;;4.15;;
75446;SDS011;64024;55.820;37.574;2023-07-02T02:24:03;4.40;;;3.78;;
75446;SDS011;64024;55.820;37.574;2023-07-02T02:26:29;5.38;;;4.22;;
75446;SDS011;64024;55.820;37.574;2023-07-02T02:28:55;5.55;;;4.28;;
75446;SDS011;64024;55.820;37.574;2023-07-02T02:31:21;6.10;;;4.38;;
75446;SDS011;64024;55.820;37.574;2023-07-02T02:33:47;8.85;;;5.03;;
75446;SDS011;64024;55.820;37.574;2023-07-02T02:36:12;5.25;;;4.47;;
75446;SDS011;64024;55.820;37.574;2023-07-02T02:38:39;5.00;;;4.35;;
75446;SDS011;64024;55.820;37.574;2023-07-02T02:41:04;5.30;;;4.53;;
75446;SDS011;64024;55.820;37.574;2023-07-02T02:43:33;4.88;;;4.05;;
75446;SDS011;64024;55.820;37.574;2023-07-02T02:45:59;7.07;;;4.47;;
75446;SDS011;64024;55.820;37.574;2023-07-02T02:48:25;5.03;;;4.30;;
75446;SDS011;64024;55.820;37.574;2023-07-02T02:50:51;7.38;;;4.30;;
75446;SDS011;64024;55.820;37.574;2023-07-02T02:53:17;8.52;;;4.22;;
75446;SDS011;64024;55.820;37.574;2023-07-02T02:55:43;5.03;;;3.70;;
75446;SDS011;64024;55.820;37.574;2023-07-02T02:58:09;4.85;;;4.35;;
75446;SDS011;64024;55.820;37.574;2023-07-02T03:00:35;5.53;;;4.55;;
75446;SDS011;64024;55.820;37.574;2023-07-02T03:03:01;4.88;;;4.10;;
75446;SDS011;64024;55.820;37.574;2023-07-02T03:07:54;4.72;;;3.65;;
75446;SDS011;64024;55.820;37.574;2023-07-02T03:10:20;5.05;;;3.70;;
75446;SDS011;64024;55.820;37.574;2023-07-02T03:12:47;4.95;;;4.32;;
75446;SDS011;64024;55.820;37.574;2023-07-02T03:15:13;5.25;;;4.30;;
75446;SDS011;64024;55.820;37.574;2023-07-02T03:17:39;5.22;;;3.85;;
75446;SDS011;64024;55.820;37.574;2023-07-02T03:20:05;4.50;;;3.80;;
75446;SDS011;64024;55.820;37.574;2023-07-02T03:22:35;6.10;;;3.95;;
75446;SDS011;64024;55.820;37.574;2023-07-02T03:25:01;4.32;;;3.50;;
75446;SDS011;64024;55.820;37.574;2023-07-02T03:27:26;4.95;;;3.85;;
75446;SDS011;64024;55.820;37.574;2023-07-02T03:29:52;4.88;;;4.03;;
75446;SDS011;64024;55.820;37.574;2023-07-02T03:32:18;3.92;;;3.45;;
75446;SDS011;64024;55.820;37.574;2023-07-02T03:34:44;5.18;;;3.75;;
75446;SDS011;64024;55.820;37.574;2023-07-02T03:37:10;5.13;;;4.20;;
75446;SDS011;64024;55.820;37.574;2023-07-02T03:39:35;5.53;;;3.53;;
75446;SDS011;64024;55.820;37.574;2023-07-02T03:42:02;4.30;;;3.88;;
75446;SDS011;64024;55.820;37.574;2023-07-02T03:44:30;4.50;;;3.50;;
75446;SDS011;64024;55.820;37.574;2023-07-02T03:46:56;5.40;;;4.00;;
75446;SDS011;64024;55.820;37.574;2023-07-02T03:49:23;4.45;;;3.72;;
75446;SDS011;64024;55.820;37.574;2023-07-02T03:51:48;7.13;;;4.30;;
75446;SDS011;64024;55.820;37.574;2023-07-02T03:54:14;4.45;;;3.88;;
75446;SDS011;64024;55.820;37.574;2023-07-02T03:56:40;5.13;;;4.63;;
75446;SDS011;64024;55.820;37.574;2023-07-02T03:59:06;3.88;;;3.40;;
75446;SDS011;64024;55.820;37.574;2023-07-02T04:01:32;6.65;;;3.53;;
75446;SDS011;64024;55.820;37.574;2023-07-02T04:03:57;4.63;;;3.60;;
75446;SDS011;64024;55.820;37.574;2023-07-02T04:06:23;4.05;;;3.25;;
75446;SDS011;64024;55.820;37.574;2023-07-02T04:08:49;5.45;;;3.70;;
75446;SDS011;64024;55.820;37.574;2023-07-02T04:11:14;4.65;;;3.50;;
75446;SDS011;64024;55.820;37.574;2023-07-02T04:13:40;4.05;;;3.47;;
75446;SDS011;64024;55.820;37.574;2023-07-02T04:16:07;6.10;;;3.47;;
75446;SDS011;64024;55.820;37.574;2023-07-02T04:18:33;4.38;;;3.97;;
75446;SDS011;64024;55.820;37.574;2023-07-02T04:21:00;4.80;;;3.95;;
75446;SDS011;64024;55.820;37.574;2023-07-02T04:23:27;4.53;;;3.40;;
75446;SDS011;64024;55.820;37.574;2023-07-02T04:25:52;4.50;;;3.58;;
75446;SDS011;64024;55.820;37.574;2023-07-02T04:28:18;5.63;;;3.38;;
75446;SDS011;64024;55.820;37.574;2023-07-02T04:30:44;4.68;;;3.70;;
75446;SDS011;64024;55.820;37.574;2023-07-02T04:33:15;4.15;;;3.38;;
75446;SDS011;64024;55.820;37.574;2023-07-02T04:35:41;4.47;;;4.07;;
75446;SDS011;64024;55.820;37.574;2023-07-02T04:38:07;4.53;;;3.50;;
75446;SDS011;64024;55.820;37.574;2023-07-02T04:40:33;4.40;;;3.65;;
75446;SDS011;64024;55.820;37.574;2023-07-02T04:42:59;4.70;;;3.40;;
75446;SDS011;64024;55.820;37.574;2023-07-02T04:45:26;3.67;;;2.92;;
75446;SDS011;64024;55.820;37.574;2023-07-02T04:48:01;3.92;;;3.28;;
75446;SDS011;64024;55.820;37.574;2023-07-02T04:50:27;4.05;;;3.10;;
75446;SDS011;64024;55.820;37.574;2023-07-02T04:52:53;4.50;;;3.22;;
75446;SDS011;64024;55.820;37.574;2023-07-02T04:55:20;4.35;;;3.10;;
75446;SDS011;64024;55.820;37.574;2023-07-02T04:57:46;3.85;;;3.08;;
75446;SDS011;64024;55.820;37.574;2023-07-02T05:00:12;3.55;;;2.97;;
75446;SDS011;64024;55.820;37.574;2023-07-02T05:02:39;4.22;;;3.33;;
75446;SDS011;64024;55.820;37.574;2023-07-02T05:05:06;4.30;;;2.85;;
75446;SDS011;64024;55.820;37.574;2023-07-02T05:07:32;4.22;;;3.15;;
75446;SDS011;64024;55.820;37.574;2023-07-02T05:09:58;5.22;;;3.60;;
75446;SDS011;64024;55.820;37.574;2023-07-02T05:12:24;3.58;;;3.28;;
75446;SDS011;64024;55.820;37.574;2023-07-02T05:14:50;5.50;;;3.22;;
75446;SDS011;64024;55.820;37.574;2023-07-02T05:17:16;4.50;;;3.63;;
75446;SDS011;64024;55.820;37.574;2023-07-02T05:19:42;4.85;;;3.92;;
75446;SDS011;64024;55.820;37.574;2023-07-02T05:22:09;4.22;;;3.50;;
75446;SDS011;64024;55.820;37.574;2023-07-02T05:24:35;5.28;;;3.90;;
75446;SDS011;64024;55.820;37.574;2023-07-02T05:27:01;3.95;;;3.50;;
75446;SDS011;64024;55.820;37.574;2023-07-02T05:29:27;4.22;;;3.50;;
75446;SDS011;64024;55.820;37.574;2023-07-02T05:31:53;5.63;;;3.33;;
75446;SDS011;64024;55.820;37.574;2023-07-02T05:34:19;4.75;;;3.35;;
75446;SDS011;64024;55.820;37.574;2023-07-02T05:36:45;4.43;;;2.97;;
75446;SDS011;64024;55.820;37.574;2023-07-02T05:39:12;3.40;;;2.83;;
75446;SDS011;64024;55.820;37.574;2023-07-02T05:41:38;5.10;;;3.30;;
75446;SDS011;64024;55.820;37.574;2023-07-02T05:44:03;4.90;;;3.53;;
75446;SDS011;64024;55.820;37.574;2023-07-02T05:46:29;3.80;;;3.50;;
75446;SDS011;64024;55.820;37.574;2023-07-02T05:48:55;5.00;;;3.45;;
75446;SDS011;64024;55.820;37.574;2023-07-02T05:51:23;4.10;;;3.53;;
75446;SDS011;64024;55.820;37.574;2023-07-02T05:53:49;3.88;;;3.15;;
75446;SDS011;64024;55.820;37.574;2023-07-02T05:56:16;5.72;;;3.90;;
75446;SDS011;64024;55.820;37.574;2023-07-02T05:58:42;3.95;;;3.20;;
75446;SDS011;64024;55.820;37.574;2023-07-02T06:01:08;5.80;;;3.72;;
75446;SDS011;64024;55.820;37.574;2023-07-02T06:03:34;5.60;;;4.20;;
75446;SDS011;64024;55.820;37.574;2023-07-02T06:06:00;4.22;;;3.55;;
75446;SDS011;64024;55.820;37.574;2023-07-02T06:08:26;4.82;;;3.55;;
75446;SDS011;64024;55.820;37.574;2023-07-02T06:10:52;6.60;;;4.03;;
75446;SDS011;64024;55.820;37.574;2023-07-02T06:13:18;3.90;;;3.30;;
75446;SDS011;64024;55.820;37.574;2023-07-02T06:15:44;4.65;;;3.45;;
75446;SDS011;64024;55.820;37.574;2023-07-02T06:18:12;5.15;;;3.42;;
75446;SDS011;64024;55.820;37.574;2023-07-02T06:20:38;4.53;;;3.17;;
75446;SDS011;64024;55.820;37.574;2023-07-02T06:23:04;3.40;;;3.10;;
75446;SDS011;64024;55.820;37.574;2023-07-02T06:25:29;4.68;;;3.88;;
75446;SDS011;64024;55.820;37.574;2023-07-02T06:30:23;3.45;;;3.15;;
75446;SDS011;64024;55.820;37.574;2023-07-02T06:32:50;5.05;;;3.47;;
75446;SDS011;64024;55.820;37.574;2023-07-02T06:35:16;4.30;;;3.17;;
75446;SDS011;64024;55.820;37.574;2023-07-02T06:37:42;4.13;;;3.22;;
75446;SDS011;64024;55.820;37.574;2023-07-02T06:40:08;4.82;;;3.70;;
75446;SDS011;64024;55.820;37.574;2023-07-02T06:42:35;4.40;;;3.15;;
75446;SDS011;64024;55.820;37.574;2023-07-02T06:45:03;4.97;;;3.28;;
75446;SDS011;64024;55.820;37.574;2023-07-02T06:47:30;3.92;;;3.40;;
75446;SDS011;64024;55.820;37.574;2023-07-02T06:49:56;4.70;;;3.50;;
75446;SDS011;64024;55.820;37.574;2023-07-02T06:52:21;3.83;;;2.65;;
75446;SDS011;64024;55.820;37.574;2023-07-02T06:54:47;4.93;;;2.83;;
75446;SDS011;64024;55.820;37.574;2023-07-02T06:57:13;4.68;;;3.10;;
75446;SDS011;64024;55.820;37.574;2023-07-02T06:59:39;4.20;;;3.40;;
75446;SDS011;64024;55.820;37.574;2023-07-02T07:02:05;8.93;;;3.50;;
75446;SDS011;64024;55.820;37.574;2023-07-02T07:04:32;10.07;;;3.35;;
75446;SDS011;64024;55.820;37.574;2023-07-02T07:07:00;4.55;;;2.90;;
75446;SDS011;64024;55.820;37.574;2023-07-02T07:09:28;6.13;;;3.10;;
75446;SDS011;64024;55.820;37.574;2023-07-02T07:11:54;5.43;;;3.38;;
75446;SDS011;64024;55.820;37.574;2023-07-02T07:14:20;3.50;;;2.58;;
75446;SDS011;64024;55.820;37.574;2023-07-02T07:16:47;2.92;;;2.63;;
75446;SDS011;64024;55.820;37.574;2023-07-02T07:19:12;6.00;;;3.35;;
75446;SDS011;64024;55.820;37.574;2023-07-02T07:21:39;5.60;;;3.47;;
75446;SDS011;64024;55.820;37.574;2023-07-02T07:24:05;5.90;;;3.47;;
75446;SDS011;64024;55.820;37.574;2023-07-02T07:26:31;5.90;;;3.42;;
75446;SDS011;64024;55.820;37.574;2023-07-02T07:28:57;4.45;;;3.28;;
75446;SDS011;64024;55.820;37.574;2023-07-02T07:31:24;3.33;;;3.03;;
75446;SDS011;64024;55.820;37.574;2023-07-02T07:33:50;3.83;;;3.33;;
75446;SDS011;64024;55.820;37.574;2023-07-02T07:36:15;4.00;;;3.10;;
75446;SDS011;64024;55.820;37.574;2023-07-02T07:38:44;5.70;;;3.42;;
75446;SDS011;64024;55.820;37.574;2023-07-02T07:41:11;5.18;;;3.17;;
75446;SDS011;64024;55.820;37.574;2023-07-02T07:43:36;5.85;;;3.55;;
75446;SDS011;64024;55.820;37.574;2023-07-02T07:46:02;4.10;;;3.38;;
75446;SDS011;64024;55.820;37.574;2023-07-02T07:48:28;4.45;;;2.90;;
75446;SDS011;64024;55.820;37.574;2023-07-02T07:50:54;4.53;;;3.40;;
75446;SDS011;64024;55.820;37.574;2023-07-02T07:53:20;5.50;;;3.42;;
75446;SDS011;64024;55.820;37.574;2023-07-02T07:55:46;3.78;;;2.95;;
75446;SDS011;64024;55.820;37.574;2023-07-02T07:58:11;4.25;;;3.58;;
75446;SDS011;64024;55.820;37.574;2023-07-02T08:00:38;6.43;;;3.67;;
75446;SDS011;64024;55.820;37.574;2023-07-02T08:03:03;3.90;;;2.85;;
75446;SDS011;64024;55.820;37.574;2023-07-02T08:05:30;3.78;;;2.60;;
75446;SDS011;64024;55.820;37.574;2023-07-02T08:07:56;3.60;;;2.92;;
75446;SDS011;64024;55.820;37.574;2023-07-02T08:12:50;4.00;;;2.67;;
75446;SDS011;64024;55.820;37.574;2023-07-02T08:15:17;5.35;;;2.72;;
75446;SDS011;64024;55.820;37.574;2023-07-02T08:17:43;3.55;;;3.00;;
75446;SDS011;64024;55.820;37.574;2023-07-02T08:20:09;4.45;;;3.38;;
75446;SDS011;64024;55.820;37.574;2023-07-02T08:22:39;6.00;;;3.05;;
75446;SDS011;64024;55.820;37.574;2023-07-02T08:25:06;3.47;;;2.70;;
75446;SDS011;64024;55.820;37.574;2023-07-02T08:27:32;4.72;;;3.25;;
75446;SDS011;64024;55.820;37.574;2023-07-02T08:29:58;4.65;;;2.75;;
75446;SDS011;64024;55.820;37.574;2023-07-02T08:32:24;5.25;;;3.25;;
75446;SDS011;64024;55.820;37.574;2023-07-02T08:34:50;5.95;;;3.08;;
75446;SDS011;64024;55.820;37.574;2023-07-02T08:37:17;5.28;;;2.95;;
75446;SDS011;64024;55.820;37.574;2023-07-02T08:39:43;5.55;;;3.15;;
75446;SDS011;64024;55.820;37.574;2023-07-02T08:42:09;5.80;;;2.80;;
75446;SDS011;64024;55.820;37.574;2023-07-02T08:44:35;4.00;;;2.78;;
75446;SDS011;64024;55.820;37.574;2023-07-02T08:47:01;3.28;;;2.88;;
75446;SDS011;64024;55.820;37.574;2023-07-02T08:49:28;5.05;;;2.78;;
75446;SDS011;64024;55.820;37.574;2023-07-02T08:51:53;3.60;;;2.67;;
75446;SDS011;64024;55.820;37.574;2023-07-02T08:54:20;4.10;;;2.75;;
75446;SDS011;64024;55.820;37.574;2023-07-02T08:56:45;3.95;;;2.70;;
75446;SDS011;64024;55.820;37.574;2023-07-02T08:59:12;3.88;;;2.78;;
75446;SDS011;64024;55.820;37.574;2023-07-02T09:01:48;4.75;;;2.95;;
75446;SDS011;64024;55.820;37.574;2023-07-02T09:04:22;4.07;;;2.47;;
75446;SDS011;64024;55.820;37.574;2023-07-02T09:06:50;3.97;;;2.38;;
75446;SDS011;64024;55.820;37.574;2023-07-02T09:09:27;4.85;;;2.80;;
75446;SDS011;64024;55.820;37.574;2023-07-02T09:11:54;4.47;;;3.03;;
75446;SDS011;64024;55.820;37.574;2023-07-02T09:14:29;5.32;;;3.30;;
75446;SDS011;64024;55.820;37.574;2023-07-02T09:19:28;4.15;;;3.03;;
75446;SDS011;64024;55.820;37.574;2023-07-02T09:21:56;4.38;;;2.58;;
75446;SDS011;64024;55.820;37.574;2023-07-02T09:24:26;5.88;;;2.78;;
75446;SDS011;64024;55.820;37.574;2023-07-02T09:26:57;4.68;;;3.80;;
75446;SDS011;64024;55.820;37.574;2023-07-02T09:29:31;5.00;;;2.80;;
75446;SDS011;64024;55.820;37.574;2023-07-02T09:31:59;6.03;;;3.15;;
75446;SDS011;64024;55.820;37.574;2023-07-02T09:34:33;4.72;;;3.33;;
75446;SDS011;64024;55.820;37.574;2023-07-02T09:37:00;5.30;;;3.28;;
75446;SDS011;64024;55.820;37.574;2023-07-02T09:39:28;4.18;;;3.03;;
75446;SDS011;64024;55.820;37.574;2023-07-02T09:41:56;3.70;;;3.00;;
75446;SDS011;64024;55.820;37.574;2023-07-02T09:44:33;3.50;;;2.75;;
75446;SDS011;64024;55.820;37.574;2023-07-02T09:47:06;4.55;;;3.10;;
75446;SDS011;64024;55.820;37.574;2023-07-02T09:52:04;4.47;;;3.15;;
75446;SDS011;64024;55.820;37.574;2023-07-02T09:54:32;4.00;;;2.97;;
75446;SDS011;64024;55.820;37.574;2023-07-02T09:56:59;4.40;;;2.67;;
75446;SDS011;64024;55.820;37.574;2023-07-02T09:59:25;3.83;;;2.83;;
75446;SDS011;64024;55.820;37.574;2023-07-02T10:01:51;3.30;;;2.65;;
75446;SDS011;64024;55.820;37.574;2023-07-02T10:04:18;4.30;;;3.25;;
75446;SDS011;64024;55.820;37.574;2023-07-02T10:06:48;3.55;;;2.70;;
75446;SDS011;64024;55.820;37.574;2023-07-02T10:10:06;4.40;;;2.92;;
75446;SDS011;64024;55.820;37.574;2023-07-02T10:12:26;3.97;;;2.72;;
75446;SDS011;64024;55.820;37.574;2023-07-02T10:14:54;6.85;;;2.85;;
75446;SDS011;64024;55.820;37.574;2023-07-02T10:17:28;7.50;;;2.95;;
75446;SDS011;64024;55.820;37.574;2023-07-02T10:19:59;4.85;;;2.88;;
75446;SDS011;64024;55.820;37.574;2023-07-02T10:22:41;4.43;;;2.70;;
75446;SDS011;64024;55.820;37.574;2023-07-02T10:25:11;4.28;;;2.92;;
75446;SDS011;64024;55.820;37.574;2023-07-02T10:27:38;4.43;;;2.95;;
75446;SDS011;64024;55.820;37.574;2023-07-02T10:30:05;5.32;;;3.28;;
75446;SDS011;64024;55.820;37.574;2023-07-02T10:32:33;3.13;;;2.80;;
75446;SDS011;64024;55.820;37.574;2023-07-02T10:35:15;5.72;;;2.85;;
75446;SDS011;64024;55.820;37.574;2023-07-02T10:37:42;3.30;;;2.75;;
75446;SDS011;64024;55.820;37.574;2023-07-02T10:40:08;4.90;;;3.20;;
75446;SDS011;64024;55.820;37.574;2023-07-02T10:42:45;5.03;;;3.05;;
75446;SDS011;64024;55.820;37.574;2023-07-02T10:45:15;7.05;;;4.00;;
75446;SDS011;64024;55.820;37.574;2023-07-02T10:47:41;6.13;;;2.95;;
75446;SDS011;64024;55.820;37.574;2023-07-02T10:50:17;5.70;;;3.22;;
75446;SDS011;64024;55.820;37.574;2023-07-02T10:52:43;5.65;;;3.25;;
75446;SDS011;64024;55.820;37.574;2023-07-02T10:55:09;4.97;;;2.85;;
75446;SDS011;64024;55.820;37.574;2023-07-02T10:57:35;5.15;;;3.90;;
75446;SDS011;64024;55.820;37.574;2023-07-02T11:00:05;4.05;;;2.85;;
75446;SDS011;64024;55.820;37.574;2023-07-02T11:02:36;4.25;;;3.30;;
75446;SDS011;64024;55.820;37.574;2023-07-02T11:05:02;3.50;;;3.03;;
75446;SDS011;64024;55.820;37.574;2023-07-02T11:07:32;4.18;;;2.88;;
75446;SDS011;64024;55.820;37.574;2023-07-02T11:09:58;5.28;;;3.03;;
75446;SDS011;64024;55.820;37.574;2023-07-02T11:12:28;4.25;;;3.33;;
75446;SDS011;64024;55.820;37.574;2023-07-02T11:14:55;6.72;;;2.63;;
75446;SDS011;64024;55.820;37.574;2023-07-02T11:17:31;4.32;;;2.80;;
75446;SDS011;64024;55.820;37.574;2023-07-02T11:19:57;3.92;;;3.03;;
75446;SDS011;64024;55.820;37.574;2023-07-02T11:22:32;4.13;;;2.60;;
75446;SDS011;64024;55.820;37.574;2023-07-02T11:25:17;3.60;;;2.70;;
75446;SDS011;64024;55.820;37.574;2023-07-02T11:27:47;3.60;;;2.63;;
75446;SDS011;64024;55.820;37.574;2023-07-02T11:30:13;3.90;;;2.42;;
75446;SDS011;64024;55.820;37.574;2023-07-02T11:32:48;4.55;;;2.88;;
75446;SDS011;64024;55.820;37.574;2023-07-02T11:35:16;4.18;;;3.05;;
75446;SDS011;64024;55.820;37.574;2023-07-02T11:40:10;4.47;;;2.15;;
75446;SDS011;64024;55.820;37.574;2023-07-02T11:42:36;2.67;;;1.95;;
75446;SDS011;64024;55.820;37.574;2023-07-02T11:45:03;4.85;;;2.65;;
75446;SDS011;64024;55.820;37.574;2023-07-02T11:47:29;4.15;;;2.85;;
75446;SDS011;64024;55.820;37.574;2023-07-02T11:49:54;4.18;;;2.97;;
75446;SDS011;64024;55.820;37.574;2023-07-02T11:52:21;3.20;;;2.20;;
75446;SDS011;64024;55.820;37.574;2023-07-02T11:54:48;3.30;;;2.35;;
75446;SDS011;64024;55.820;37.574;2023-07-02T11:57:14;4.30;;;2.50;;
75446;SDS011;64024;55.820;37.574;2023-07-02T11:59:40;5.40;;;2.40;;
75446;SDS011;64024;55.820;37.574;2023-07-02T12:02:06;4.97;;;2.80;;
75446;SDS011;64024;55.820;37.574;2023-07-02T12:04:32;5.97;;;2.35;;
75446;SDS011;64024;55.820;37.574;2023-07-02T12:06:59;6.63;;;3.05;;
75446;SDS011;64024;55.820;37.574;2023-07-02T12:09:26;3.92;;;2.65;;
75446;SDS011;64024;55.820;37.574;2023-07-02T12:11:52;5.65;;;3.05;;
75446;SDS011;64024;55.820;37.574;2023-07-02T12:14:18;3.42;;;2.50;;
75446;SDS011;64024;55.820;37.574;2023-07-02T12:16:44;3.47;;;2.63;;
75446;SDS011;64024;55.820;37.574;2023-07-02T12:19:10;6.40;;;2.45;;
75446;SDS011;64024;55.820;37.574;2023-07-02T12:21:36;4.20;;;2.63;;
75446;SDS011;64024;55.820;37.574;2023-07-02T12:24:02;3.33;;;2.03;;
75446;SDS011;64024;55.820;37.574;2023-07-02T12:26:28;4.18;;;2.60;;
75446;SDS011;64024;55.820;37.574;2023-07-02T12:28:54;4.70;;;2.28;;
75446;SDS011;64024;55.820;37.574;2023-07-02T12:31:20;4.20;;;2.33;;
75446;SDS011;64024;55.820;37.574;2023-07-02T12:33:45;4.55;;;2.25;;
75446;SDS011;64024;55.820;37.574;2023-07-02T12:36:11;4.82;;;2.65;;
75446;SDS011;64024;55.820;37.574;2023-07-02T12:38:39;7.88;;;2.92;;
75446;SDS011;64024;55.820;37.574;2023-07-02T12:41:04;6.80;;;2.88;;
75446;SDS011;64024;55.820;37.574;2023-07-02T12:43:30;9.98;;;3.20;;
75446;SDS011;64024;55.820;37.574;2023-07-02T12:45:56;5.45;;;3.03;;
75446;SDS011;64024;55.820;37.574;2023-07-02T12:48:22;5.32;;;2.55;;
75446;SDS011;64024;55.820;37.574;2023-07-02T12:50:55;5.32;;;2.83;;
75446;SDS011;64024;55.820;37.574;2023-07-02T12:53:22;4.15;;;2.63;;
75446;SDS011;64024;55.820;37.574;2023-07-02T12:55:49;4.65;;;2.50;;
75446;SDS011;64024;55.820;37.574;2023-07-02T12:58:15;5.05;;;3.17;;
75446;SDS011;64024;55.820;37.574;2023-07-02T13:00:41;3.65;;;2.50;;
75446;SDS011;64024;55.820;37.574;2023-07-02T13:03:09;4.57;;;2.55;;
75446;SDS011;64024;55.820;37.574;2023-07-02T13:05:36;4.50;;;2.65;;
75446;SDS011;64024;55.820;37.574;2023-07-02T13:08:02;4.50;;;2.30;;
75446;SDS011;64024;55.820;37.574;2023-07-02T13:10:28;3.35;;;2.60;;
75446;SDS011;64024;55.820;37.574;2023-07-02T13:12:55;5.22;;;2.20;;
75446;SDS011;64024;55.820;37.574;2023-07-02T13:15:21;4.75;;;2.45;;
75446;SDS011;64024;55.820;37.574;2023-07-02T13:17:48;4.10;;;2.75;;
75446;SDS011;64024;55.820;37.574;2023-07-02T13:20:14;4.18;;;2.60;;
75446;SDS011;64024;55.820;37.574;2023-07-02T13:22:40;5.38;;;2.65;;
75446;SDS011;64024;55.820;37.574;2023-07-02T13:25:06;3.53;;;2.55;;
75446;SDS011;64024;55.820;37.574;2023-07-02T13:27:32;3.75;;;2.90;;
75446;SDS011;64024;55.820;37.574;2023-07-02T13:29:58;3.92;;;2.28;;
75446;SDS011;64024;55.820;37.574;2023-07-02T13:32:24;3.65;;;2.63;;
75446;SDS011;64024;55.820;37.574;2023-07-02T13:34:50;5.95;;;2.60;;
75446;SDS011;64024;55.820;37.574;2023-07-02T13:37:16;5.15;;;2.88;;
75446;SDS011;64024;55.820;37.574;2023-07-02T13:39:46;3.95;;;2.42;;
75446;SDS011;64024;55.820;37.574;2023-07-02T13:42:12;3.85;;;2.78;;
75446;SDS011;64024;55.820;37.574;2023-07-02T13:44:38;4.50;;;2.58;;
75446;SDS011;64024;55.820;37.574;2023-07-02T13:47:03;3.45;;;2.75;;
75446;SDS011;64024;55.820;37.574;2023-07-02T13:49:30;4.05;;;2.47;;
75446;SDS011;64024;55.820;37.574;2023-07-02T13:51:56;4.57;;;2.50;;
75446;SDS011;64024;55.820;37.574;2023-07-02T13:54:21;3.80;;;2.75;;
75446;SDS011;64024;55.820;37.574;2023-07-02T13:56:48;4.50;;;2.70;;
75446;SDS011;64024;55.820;37.574;2023-07-02T13:59:14;4.22;;;2.40;;
75446;SDS011;64024;55.820;37.574;2023-07-02T14:01:41;4.82;;;2.90;;
75446;SDS011;64024;55.820;37.574;2023-07-02T14:04:09;3.45;;;2.63;;
75446;SDS011;64024;55.820;37.574;2023-07-02T14:09:01;5.32;;;3.00;;
75446;SDS011;64024;55.820;37.574;2023-07-02T14:11:28;2.95;;;2.50;;
75446;SDS011;64024;55.820;37.574;2023-07-02T14:13:55;3.58;;;2.50;;
75446;SDS011;64024;55.820;37.574;2023-07-02T14:16:21;4.00;;;2.47;;
75446;SDS011;64024;55.820;37.574;2023-07-02T14:18:49;4.18;;;2.92;;
75446;SDS011;64024;55.820;37.574;2023-07-02T14:21:15;3.90;;;2.65;;
75446;SDS011;64024;55.820;37.574;2023-07-02T14:23:41;6.30;;;2.78;;
75446;SDS011;64024;55.820;37.574;2023-07-02T14:26:07;3.58;;;2.42;;
75446;SDS011;64024;55.820;37.574;2023-07-02T14:28:33;4.70;;;2.90;;
75446;SDS011;64024;55.820;37.574;2023-07-02T14:30:59;3.90;;;2.72;;
75446;SDS011;64024;55.820;37.574;2023-07-02T14:33:27;4.32;;;2.58;;
75446;SDS011;64024;55.820;37.574;2023-07-02T14:35:54;3.53;;;2.53;;
75446;SDS011;64024;55.820;37.574;2023-07-02T14:38:20;3.83;;;2.40;;
75446;SDS011;64024;55.820;37.574;2023-07-02T14:40:47;5.30;;;3.30;;
75446;SDS011;64024;55.820;37.574;2023-07-02T14:45:49;4.20;;;2.90;;
75446;SDS011;64024;55.820;37.574;2023-07-02T14:48:16;4.82;;;3.13;;
75446;SDS011;64024;55.820;37.574;2023-07-02T14:50:50;3.53;;;2.83;;
75446;SDS011;64024;55.820;37.574;2023-07-02T14:53:18;5.10;;;2.90;;
75446;SDS011;64024;55.820;37.574;2023-07-02T14:55:45;4.13;;;2.88;;
75446;SDS011;64024;55.820;37.574;2023-07-02T14:58:12;4.20;;;2.90;;